Aeroporto :
LOGIN :

Iscrizione | Disclaimer

   EN    FR    IT 

 










Sommario :    VFR   VFR Marginale   IFR   IFR Intensivo   IFR Molto Intensivo
Visibilità : 
Base nubi : 
>= 8 km
>= 3000ft
5 / 8 km
1000 / 3000 ft
1500m / 5 km
500 / 1000 ft
800 / 1500m
200 / 500 ft
< 800m
< 200 ft
Simboli :   Temporali  Nebbia  Neve Forte  Precipitazioni Forti  Vento > 20 kt
SIGMETs :   Varie  Temporali  Ghiacco  Turbolenza  Onda orograficha  Ceneri Vulcaniche






- Altitudine del aeroporto : 63 ft
- Codice IATA : BZM


EHWO - Woensdrecht Airbase

ULTIMO METAR :
  • 230940Z AUTO 24029G42KT 9999 DZ FEW002 OVC015 12/10 Q1010 WHT

METARs OBSOLETI :
  • 230934Z AUTO 24029G42KT 220V280 9999 -DZRA FEW002 BKN014 FEW015CB OVC016 12/10 Q1010 GRN
  • 230925Z AUTO 24027G40KT 210V280 9999 -RA FEW002 BKN014 FEW015CB OVC017 12/10 Q1010 GRN
  • 230908Z AUTO 24029G43KT 3100 -RA SCT013 BKN015CB OVC020 12/10 Q1010 YLO
  • 230905Z AUTO 24028G40KT 3900 -RA SCT013 BKN015CB 12/10 Q1010 GRN
  • 230838Z AUTO 24024G36KT 200V270 9999 FEW009 BKN011 BKN013 12/11 Q1010 GRN
  • 230821Z AUTO 23024G35KT 200V260 6000 -DZ FEW007 SCT009 BKN011 12/11 Q1010 GRN
  • 230755Z AUTO 23023G37KT 210V270 5000 DZ SCT007 BKN008 OVC010 11/10 Q1010 GRN
  • 230737Z AUTO 23020G30KT 200V260 9000 -RA SCT007 OVC008 11/10 Q1010 GRN
  • 230726Z AUTO 23019G30KT 190V260 9000 -SHRA BKN006 BKN007 OVC009 11/10 Q1010 YLO
  • 230710Z AUTO 23019KT 190V260 6000 -RA FEW005 BKN006 BKN008 10/10 Q1010 YLO
  • 230655Z AUTO 22020G31KT 180V260 4500 -RA SCT006 BKN007 BKN009 10/10 Q1011 YLO

Previsioni scadute.



MetMap, La meteo Aeronautica in un colpo d'occhio ! - Copyright ORBIFLY Dicembre 2007 - Disclaimer

ORBIFLY MET'MAP TEAM :

Programmazione e sviluppo : Alexandra Zaïnal
Concezione : Baudouin d'Aumeries
Aiuto per la programmazione : Marc-Olivier Méhu
Supporto tecnico e logistico : Manuel Goepfert
Aiuto per la traduzione : Arnaldo La Scala

Contatto : metmap@orbifly.com




FONTI E CREDITI :

   NOAA